createdAt,value
2022-12-07T00:00:20.120Z,9.30
2022-12-07T00:05:23.187Z,10.90
2022-12-07T00:10:26.087Z,10.82
2022-12-07T00:15:29.331Z,11.25
2022-12-07T00:20:32.500Z,8.43
2022-12-07T00:25:35.229Z,10.40
2022-12-07T00:30:37.983Z,11.90
2022-12-07T00:35:40.658Z,10.93
2022-12-07T00:40:43.439Z,8.85
2022-12-07T00:45:46.141Z,14.98
2022-12-07T00:50:49.637Z,11.13
2022-12-07T00:55:53.817Z,16.45
2022-12-07T01:01:02.971Z,11.63
2022-12-07T01:06:06.621Z,11.27
2022-12-07T01:11:13.263Z,13.27
2022-12-07T01:16:18.191Z,15.27
2022-12-07T01:21:26.058Z,14.30
2022-12-07T01:26:28.873Z,15.05
2022-12-07T01:31:31.770Z,14.95
2022-12-07T01:36:37.156Z,13.43
2022-12-07T01:41:43.925Z,17.33
2022-12-07T01:46:51.043Z,13.45
2022-12-07T01:52:02.041Z,18.13
2022-12-07T01:57:07.270Z,16.17
2022-12-07T02:02:20.047Z,14.43
2022-12-07T02:07:24.577Z,12.10
2022-12-07T02:12:27.690Z,13.20
2022-12-07T02:17:42.849Z,13.10
2022-12-07T02:23:23.134Z,12.55
2022-12-07T02:28:38.311Z,14.20
2022-12-07T02:33:48.179Z,13.87
2022-12-07T02:39:20.762Z,14.73
2022-12-07T02:44:27.382Z,19.52
2022-12-07T02:49:31.379Z,22.10
2022-12-07T02:54:34.152Z,16.40
2022-12-07T02:59:55.324Z,19.57
2022-12-07T03:05:25.066Z,17.70
2022-12-07T03:10:43.969Z,16.27
2022-12-07T03:16:29.249Z,16.38
2022-12-07T03:21:38.672Z,14.85
2022-12-07T03:26:48.258Z,16.10
2022-12-07T03:31:58.799Z,21.00
2022-12-07T03:37:14.279Z,18.58
2022-12-07T03:42:17.689Z,16.33
2022-12-07T03:48:15.285Z,18.10
2022-12-07T03:53:45.149Z,15.83
2022-12-07T03:58:49.009Z,22.00
2022-12-07T04:03:51.820Z,16.40
2022-12-07T04:08:54.486Z,13.23
2022-12-07T04:14:15.705Z,16.10
2022-12-07T04:19:20.384Z,10.60
2022-12-07T04:24:23.189Z,9.70
2022-12-07T04:29:26.239Z,10.23
2022-12-07T04:34:29.217Z,7.97
2022-12-07T04:39:33.644Z,6.95
2022-12-07T04:44:36.999Z,9.73
2022-12-07T04:49:39.852Z,10.43
2022-12-07T04:54:42.590Z,4.72
2022-12-07T04:59:46.125Z,13.10
2022-12-07T05:04:48.953Z,11.35
2022-12-07T05:09:51.723Z,10.83
2022-12-07T05:14:54.678Z,10.35
2022-12-07T05:19:57.369Z,8.02
2022-12-07T05:25:00.336Z,8.80
2022-12-07T05:30:03.395Z,7.57
2022-12-07T05:35:06.973Z,7.47
2022-12-07T05:40:10.958Z,7.25
2022-12-07T05:45:13.707Z,11.95
2022-12-07T05:50:16.615Z,13.70
2022-12-07T05:55:20.465Z,10.30
2022-12-07T06:00:23.539Z,10.23
2022-12-07T06:05:26.366Z,12.98
2022-12-07T06:10:29.358Z,5.40
2022-12-07T06:15:32.180Z,9.57
2022-12-07T06:20:35.063Z,9.10
2022-12-07T06:25:37.752Z,9.43
2022-12-07T06:30:40.567Z,8.57
2022-12-07T06:35:43.652Z,7.45
2022-12-07T06:40:46.635Z,13.15
2022-12-07T06:45:49.386Z,9.75
2022-12-07T06:50:54.941Z,9.43
2022-12-07T06:55:58.372Z,11.90
2022-12-07T07:01:01.784Z,12.88
2022-12-07T07:06:05.025Z,12.75
2022-12-07T07:11:09.564Z,12.27
2022-12-07T07:16:14.123Z,11.83
2022-12-07T07:21:17.478Z,17.17
2022-12-07T07:26:23.249Z,11.10
2022-12-07T07:31:26.562Z,14.15
2022-12-07T07:36:29.376Z,12.05
2022-12-07T07:41:32.846Z,16.20
2022-12-07T07:46:36.656Z,11.18
2022-12-07T07:51:39.674Z,9.80
2022-12-07T07:56:42.824Z,8.25
2022-12-07T08:01:45.815Z,7.35
2022-12-07T08:15:17.781Z,10.00
2022-12-07T12:23:08.426Z,5.10
2022-12-07T12:28:36.915Z,6.35
2022-12-07T12:33:51.653Z,5.32
2022-12-07T12:39:14.646Z,5.40
2022-12-07T12:44:20.305Z,4.88
2022-12-07T12:49:23.004Z,5.13
2022-12-07T12:54:39.271Z,6.07
2022-12-07T12:59:54.105Z,8.95
2022-12-07T13:05:09.275Z,5.17
2022-12-07T13:10:30.417Z,5.57
2022-12-07T13:15:36.599Z,4.43
2022-12-07T13:20:55.971Z,4.93
2022-12-07T13:26:18.272Z,5.85
2022-12-07T13:31:33.810Z,6.00
2022-12-07T13:36:40.205Z,4.78
2022-12-07T13:41:44.311Z,5.10
2022-12-07T13:47:30.457Z,5.32
2022-12-07T13:52:33.213Z,6.38
2022-12-07T13:57:37.289Z,5.90
2022-12-07T14:03:02.707Z,7.65
2022-12-07T14:08:07.254Z,7.35
2022-12-07T14:13:35.351Z,6.45
2022-12-07T14:18:43.046Z,4.35
2022-12-07T14:23:46.035Z,5.17
2022-12-07T14:28:49.065Z,6.20
2022-12-07T14:33:52.147Z,7.53
2022-12-07T14:38:57.422Z,5.65
2022-12-07T14:44:22.401Z,7.70
2022-12-07T14:49:38.827Z,4.97
2022-12-07T14:54:43.625Z,6.88
2022-12-07T14:59:46.483Z,11.77
2022-12-07T15:04:49.399Z,10.88
2022-12-07T15:09:52.370Z,11.35
2022-12-07T15:14:55.655Z,17.87
2022-12-07T15:19:58.475Z,10.90
2022-12-07T15:25:01.618Z,9.32
2022-12-07T15:30:05.479Z,10.57
2022-12-07T15:35:09.056Z,7.53
2022-12-07T15:40:12.693Z,10.83
2022-12-07T15:45:15.476Z,11.98
2022-12-07T15:50:18.510Z,7.57
2022-12-07T15:55:21.333Z,8.25
2022-12-07T16:00:24.281Z,11.93
2022-12-07T16:05:27.045Z,8.83
2022-12-07T16:10:29.939Z,9.32
2022-12-07T16:15:32.794Z,9.25
2022-12-07T16:20:35.757Z,11.68
2022-12-07T16:25:38.605Z,10.77
2022-12-07T16:30:41.415Z,8.73
2022-12-07T16:35:45.130Z,13.73
2022-12-07T16:40:48.966Z,7.25
2022-12-07T16:45:51.977Z,11.00
2022-12-07T16:50:55.354Z,9.90
2022-12-07T16:55:58.016Z,7.90
2022-12-07T17:01:01.118Z,7.22
2022-12-07T17:06:04.145Z,8.27
2022-12-07T17:11:22.065Z,7.57
2022-12-07T17:16:24.890Z,6.97
2022-12-07T17:21:27.656Z,9.80
2022-12-07T17:26:35.383Z,9.55
2022-12-07T17:31:39.452Z,12.43
2022-12-07T17:36:43.008Z,6.97
2022-12-07T17:42:04.657Z,9.20
2022-12-07T17:47:08.319Z,11.07
2022-12-07T17:52:29.487Z,5.20
2022-12-07T17:57:32.485Z,8.18
2022-12-07T18:02:35.275Z,4.85
2022-12-07T18:07:38.370Z,9.07
2022-12-07T18:12:41.316Z,5.03
2022-12-07T18:17:44.174Z,11.70
2022-12-07T18:22:47.161Z,6.72
2022-12-07T18:27:50.133Z,4.43
2022-12-07T18:32:52.864Z,5.65
2022-12-07T18:37:55.766Z,9.30
2022-12-07T18:42:58.564Z,2.42
2022-12-07T18:48:01.326Z,8.57
2022-12-07T18:53:05.505Z,10.88
2022-12-07T18:58:08.419Z,15.85
2022-12-07T19:03:11.482Z,15.33
2022-12-07T19:08:14.400Z,11.57
2022-12-07T19:13:17.294Z,13.43
2022-12-07T19:18:20.153Z,6.10
2022-12-07T19:23:25.476Z,11.93
2022-12-07T19:28:28.383Z,14.30
2022-12-07T19:33:31.484Z,11.30
2022-12-07T19:38:35.224Z,10.73
2022-12-07T19:43:38.344Z,14.20
2022-12-07T19:48:41.174Z,15.20
2022-12-07T19:53:43.978Z,10.87
2022-12-07T19:58:48.216Z,13.52
2022-12-07T20:03:50.993Z,12.68
2022-12-07T20:08:54.006Z,10.20
2022-12-07T20:13:57.082Z,14.27
2022-12-07T20:19:00.656Z,15.70
2022-12-07T20:24:05.943Z,9.93
2022-12-07T20:29:16.301Z,9.52
2022-12-07T20:34:29.583Z,9.10
2022-12-07T20:39:33.955Z,6.03
2022-12-07T20:44:37.110Z,5.67
2022-12-07T20:49:40.027Z,5.72
2022-12-07T20:54:42.884Z,5.22
2022-12-07T20:59:45.903Z,5.95
2022-12-07T21:04:48.684Z,7.72
2022-12-07T21:09:52.406Z,6.33
2022-12-07T21:14:55.513Z,5.97
2022-12-07T21:19:58.438Z,5.78
2022-12-07T21:25:01.388Z,5.72
2022-12-07T21:30:08.234Z,4.78
2022-12-07T21:35:11.136Z,4.93
2022-12-07T21:40:17.006Z,4.78
2022-12-07T21:45:19.943Z,7.35
2022-12-07T21:50:22.819Z,6.32
2022-12-07T21:55:25.531Z,7.43
2022-12-07T22:00:28.644Z,2.80
2022-12-07T22:05:31.333Z,5.75
2022-12-07T22:10:34.008Z,4.20
2022-12-07T22:15:40.476Z,5.38
2022-12-07T22:20:43.423Z,5.60
2022-12-07T22:25:46.306Z,3.33
2022-12-07T22:30:49.047Z,4.72
2022-12-07T22:35:54.495Z,5.68
2022-12-07T22:40:57.882Z,3.47
2022-12-07T22:46:00.943Z,4.63
2022-12-07T22:51:04.177Z,5.03
2022-12-07T22:56:07.031Z,4.47
2022-12-07T23:01:11.514Z,6.07
2022-12-07T23:06:26.160Z,4.75
2022-12-07T23:11:50.714Z,4.05
2022-12-07T23:16:54.078Z,5.40
2022-12-07T23:21:56.941Z,6.57
2022-12-07T23:26:59.786Z,7.60
2022-12-07T23:32:02.545Z,6.03
2022-12-07T23:37:05.277Z,5.00
2022-12-07T23:42:07.902Z,6.33
2022-12-07T23:47:10.655Z,4.03
2022-12-07T23:52:13.430Z,6.53
2022-12-07T23:57:16.058Z,4.38
